createdAt,value
2022-10-30T00:01:07.360Z,3.00
2022-10-30T00:04:14.766Z,3.75
2022-10-30T00:07:24.903Z,3.17
2022-10-30T00:10:32.357Z,4.80
2022-10-30T00:13:40.768Z,4.82
2022-10-30T00:16:48.282Z,2.38
2022-10-30T00:19:55.774Z,4.53
2022-10-30T00:23:06.032Z,4.47
2022-10-30T00:26:13.770Z,3.67
2022-10-30T00:29:23.805Z,2.70
2022-10-30T00:32:31.743Z,3.33
2022-10-30T00:35:39.282Z,4.82
2022-10-30T00:38:49.766Z,3.38
2022-10-30T00:41:57.243Z,4.40
2022-10-30T00:45:04.805Z,3.10
2022-10-30T00:48:13.975Z,2.92
2022-10-30T00:51:23.398Z,3.83
2022-10-30T00:54:33.755Z,2.90
2022-10-30T00:57:43.610Z,2.83
2022-10-30T01:00:55.187Z,2.50
2022-10-30T01:04:05.749Z,2.78
2022-10-30T01:07:17.537Z,3.70
2022-10-30T01:10:28.763Z,3.38
2022-10-30T01:13:37.815Z,3.30
2022-10-30T01:17:01.602Z,3.23
2022-10-30T01:20:26.009Z,2.75
2022-10-30T01:23:42.704Z,2.70
2022-10-30T01:26:59.224Z,4.22
2022-10-30T01:30:18.301Z,3.85
2022-10-30T01:33:35.852Z,3.00
2022-10-30T01:36:48.560Z,2.03
2022-10-30T01:39:56.760Z,3.70
2022-10-30T01:43:07.321Z,4.07
2022-10-30T01:46:31.512Z,3.50
2022-10-30T01:50:18.147Z,2.58
2022-10-30T01:53:39.955Z,3.10
2022-10-30T01:56:58.471Z,3.70
2022-10-30T02:00:10.935Z,3.45
2022-10-30T02:03:18.976Z,3.47
2022-10-30T02:06:26.673Z,3.35
2022-10-30T02:09:34.684Z,3.50
2022-10-30T02:12:42.766Z,2.20
2022-10-30T02:15:52.186Z,2.78
2022-10-30T02:18:59.981Z,2.72
2022-10-30T02:22:10.447Z,2.78
2022-10-30T02:25:18.664Z,3.42
2022-10-30T02:28:25.996Z,3.70
2022-10-30T02:31:33.855Z,4.72
2022-10-30T02:34:43.166Z,2.40
2022-10-30T02:37:54.109Z,3.60
2022-10-30T02:41:01.706Z,3.25
2022-10-30T02:44:09.775Z,4.05
2022-10-30T02:47:17.354Z,3.85
2022-10-30T02:50:24.683Z,3.20
2022-10-30T02:53:36.812Z,3.25
2022-10-30T02:56:44.479Z,3.28
2022-10-30T02:59:52.046Z,3.00
2022-10-30T03:02:59.571Z,3.70
2022-10-30T03:06:09.380Z,2.88
2022-10-30T03:09:19.977Z,3.00
2022-10-30T03:12:27.494Z,3.50
2022-10-30T03:15:35.068Z,4.07
2022-10-30T03:18:42.861Z,3.75
2022-10-30T03:21:50.504Z,3.75
2022-10-30T03:25:01.172Z,2.60
2022-10-30T03:28:08.746Z,4.22
2022-10-30T03:31:18.022Z,3.05
2022-10-30T03:34:25.516Z,3.77
2022-10-30T03:37:32.961Z,3.85
2022-10-30T03:40:43.854Z,2.47
2022-10-30T03:43:51.315Z,2.28
2022-10-30T03:46:58.869Z,3.78
2022-10-30T03:50:06.365Z,2.83
2022-10-30T03:53:14.323Z,2.80
2022-10-30T03:56:24.711Z,4.25
2022-10-30T03:59:32.493Z,2.75
2022-10-30T04:02:40.187Z,3.92
2022-10-30T04:05:51.218Z,4.05
2022-10-30T04:08:58.882Z,2.95
2022-10-30T04:12:09.483Z,3.85
2022-10-30T04:15:17.000Z,3.55
2022-10-30T04:18:24.798Z,3.90
2022-10-30T04:21:32.211Z,4.65
2022-10-30T04:24:39.970Z,3.78
2022-10-30T04:27:50.302Z,4.57
2022-10-30T04:30:57.884Z,2.83
2022-10-30T04:34:05.442Z,3.08
2022-10-30T04:37:12.923Z,3.25
2022-10-30T04:40:20.462Z,4.63
2022-10-30T04:43:30.981Z,2.25
2022-10-30T04:46:38.402Z,2.72
2022-10-30T04:49:46.209Z,3.60
2022-10-30T04:53:02.554Z,4.00
2022-10-30T04:56:10.875Z,3.33
2022-10-30T04:59:21.247Z,4.25
2022-10-30T05:02:29.302Z,2.13
2022-10-30T05:05:36.805Z,3.92
2022-10-30T05:08:44.306Z,2.88
2022-10-30T05:11:53.837Z,3.72
2022-10-30T05:15:07.038Z,5.10
2022-10-30T05:18:14.590Z,3.90
2022-10-30T05:21:22.127Z,3.05
2022-10-30T05:24:29.587Z,4.22
2022-10-30T05:27:37.029Z,3.13
2022-10-30T05:30:47.300Z,2.63
2022-10-30T05:33:54.762Z,4.70
2022-10-30T05:37:02.246Z,2.58
2022-10-30T05:40:10.952Z,3.63
2022-10-30T05:43:18.378Z,3.42
2022-10-30T05:46:28.779Z,3.88
2022-10-30T05:49:36.234Z,5.50
2022-10-30T05:52:43.702Z,2.65
2022-10-30T05:55:51.348Z,2.80
2022-10-30T05:58:59.464Z,3.10
2022-10-30T06:02:09.798Z,2.53
2022-10-30T06:05:17.430Z,4.38
2022-10-30T06:08:25.016Z,5.53
2022-10-30T06:11:32.843Z,2.72
2022-10-30T06:14:40.321Z,4.50
2022-10-30T06:17:50.741Z,3.13
2022-10-30T06:20:58.652Z,4.05
2022-10-30T06:24:06.111Z,3.17
2022-10-30T06:27:13.672Z,3.08
2022-10-30T06:30:21.711Z,4.97
2022-10-30T06:33:31.944Z,4.45
2022-10-30T06:36:39.430Z,5.80
2022-10-30T06:39:46.996Z,3.60
2022-10-30T06:42:56.493Z,2.53
2022-10-30T06:46:04.447Z,4.65
2022-10-30T06:49:14.886Z,3.88
2022-10-30T06:52:23.292Z,3.63
2022-10-30T06:55:30.835Z,4.07
2022-10-30T06:58:39.387Z,5.43
2022-10-30T07:01:47.133Z,4.32
2022-10-30T07:04:57.392Z,4.03
2022-10-30T07:08:04.952Z,3.30
2022-10-30T07:11:12.427Z,5.05
2022-10-30T07:14:19.866Z,3.05
2022-10-30T07:17:27.470Z,3.92
2022-10-30T07:20:38.423Z,6.13
2022-10-30T07:24:13.356Z,3.08
2022-10-30T07:27:20.816Z,3.85
2022-10-30T07:30:30.208Z,4.25
2022-10-30T07:33:37.605Z,4.13
2022-10-30T07:36:47.812Z,4.15
2022-10-30T07:39:57.164Z,4.32
2022-10-30T07:43:06.505Z,3.92
2022-10-30T07:46:13.974Z,4.37
2022-10-30T07:49:21.540Z,4.00
2022-10-30T07:52:34.581Z,3.55
2022-10-30T07:55:42.317Z,3.80
2022-10-30T07:58:49.853Z,3.58
2022-10-30T08:01:57.509Z,5.22
2022-10-30T08:05:05.533Z,4.07
2022-10-30T08:08:15.783Z,3.25
2022-10-30T08:11:23.549Z,6.65
2022-10-30T08:14:31.024Z,3.88
2022-10-30T08:17:45.797Z,3.42
2022-10-30T08:20:53.498Z,4.72
2022-10-30T08:24:03.722Z,4.38
2022-10-30T08:27:11.282Z,4.28
2022-10-30T08:30:18.859Z,3.38
2022-10-30T08:33:26.502Z,4.10
2022-10-30T08:36:34.185Z,4.07
2022-10-30T08:39:44.478Z,5.25
2022-10-30T08:42:55.357Z,2.38
2022-10-30T08:46:02.951Z,4.50
2022-10-30T08:49:10.494Z,5.25
2022-10-30T08:52:18.117Z,2.60
2022-10-30T08:55:29.059Z,4.43
2022-10-30T08:58:39.013Z,3.53
2022-10-30T09:01:47.963Z,5.35
2022-10-30T09:04:55.614Z,5.25
2022-10-30T09:08:03.990Z,5.18
2022-10-30T09:11:17.723Z,3.58
2022-10-30T09:14:30.053Z,5.18
2022-10-30T09:17:37.567Z,2.85
2022-10-30T09:20:45.162Z,4.78
2022-10-30T09:23:52.707Z,5.18
2022-10-30T09:27:03.209Z,4.05
2022-10-30T09:30:12.331Z,4.40
2022-10-30T09:33:19.789Z,3.43
2022-10-30T09:36:28.623Z,4.40
2022-10-30T09:39:36.161Z,4.63
2022-10-30T09:42:48.870Z,4.72
2022-10-30T09:46:20.706Z,4.38
2022-10-30T09:49:42.787Z,3.20
2022-10-30T09:53:02.075Z,3.47
2022-10-30T09:56:15.269Z,3.38
2022-10-30T09:59:38.524Z,3.30
2022-10-30T10:03:10.259Z,3.85
2022-10-30T10:06:22.478Z,4.80
2022-10-30T10:09:39.446Z,4.93
2022-10-30T10:13:01.614Z,3.50
2022-10-30T10:16:27.422Z,5.18
2022-10-30T10:19:55.564Z,6.93
2022-10-30T10:23:13.807Z,6.28
2022-10-30T10:26:43.814Z,6.45
2022-10-30T10:33:32.473Z,5.00
2022-10-30T10:36:49.280Z,5.65
2022-10-30T10:40:29.477Z,3.97
2022-10-30T10:43:57.570Z,4.55
2022-10-30T10:47:29.614Z,3.42
2022-10-30T10:50:50.664Z,4.97
2022-10-30T10:54:32.808Z,4.97
2022-10-30T10:58:12.103Z,4.72
2022-10-30T11:05:39.599Z,4.65
2022-10-30T11:08:50.839Z,3.88
2022-10-30T11:12:03.467Z,5.40
2022-10-30T11:15:29.524Z,3.08
2022-10-30T11:18:46.920Z,5.13
2022-10-30T11:22:05.819Z,3.33
2022-10-30T11:25:40.879Z,4.28
2022-10-30T11:29:04.049Z,5.05
2022-10-30T11:32:24.357Z,3.55
2022-10-30T11:35:36.609Z,3.78
2022-10-30T11:38:49.161Z,4.32
2022-10-30T11:42:16.996Z,4.47
2022-10-30T11:45:29.642Z,4.63
2022-10-30T11:48:46.606Z,4.05
2022-10-30T11:51:54.146Z,5.95
2022-10-30T11:55:16.544Z,4.32
2022-10-30T11:58:33.702Z,4.10
2022-10-30T12:02:08.790Z,4.57
2022-10-30T12:05:35.317Z,3.63
2022-10-30T12:08:47.422Z,4.40
2022-10-30T12:12:13.304Z,4.38
2022-10-30T12:15:29.429Z,4.05
2022-10-30T12:18:47.984Z,3.83
2022-10-30T12:22:02.483Z,3.03
2022-10-30T12:25:23.745Z,4.28
2022-10-30T12:28:40.746Z,4.55
2022-10-30T12:31:57.157Z,3.92
2022-10-30T12:35:18.621Z,4.25
2022-10-30T12:38:36.137Z,4.90
2022-10-30T12:42:00.202Z,3.22
2022-10-30T12:45:22.577Z,4.57
2022-10-30T12:48:44.938Z,4.97
2022-10-30T12:52:01.290Z,4.57
2022-10-30T12:55:19.744Z,2.20
2022-10-30T12:58:34.770Z,4.28
2022-10-30T13:01:51.817Z,5.28
2022-10-30T13:05:09.170Z,4.00
2022-10-30T13:08:25.576Z,3.75
2022-10-30T13:11:47.327Z,3.85
2022-10-30T13:15:01.970Z,2.47
2022-10-30T13:18:20.641Z,1.90
2022-10-30T13:21:40.459Z,4.25
2022-10-30T13:25:03.693Z,5.72
2022-10-30T13:28:30.914Z,5.78
2022-10-30T13:31:51.134Z,5.40
2022-10-30T13:35:22.509Z,5.03
2022-10-30T13:39:05.425Z,4.50
2022-10-30T13:42:25.960Z,5.35
2022-10-30T13:46:16.345Z,5.28
2022-10-30T13:49:44.608Z,3.88
2022-10-30T13:53:06.845Z,4.53
2022-10-30T13:56:31.428Z,4.30
2022-10-30T13:59:56.434Z,2.95
2022-10-30T14:03:56.527Z,5.00
2022-10-30T14:07:21.960Z,4.40
2022-10-30T14:10:48.936Z,4.25
2022-10-30T14:14:11.188Z,3.25
2022-10-30T14:17:23.864Z,8.95
2022-10-30T14:20:40.629Z,3.63
2022-10-30T14:23:48.162Z,4.40
2022-10-30T14:27:22.537Z,2.55
2022-10-30T14:30:33.603Z,3.33
2022-10-30T14:33:58.312Z,4.05
2022-10-30T14:37:06.996Z,3.33
2022-10-30T14:40:42.997Z,3.70
2022-10-30T14:44:24.012Z,3.25
2022-10-30T14:48:00.276Z,2.20
2022-10-30T14:51:24.094Z,2.50
2022-10-30T14:54:42.910Z,2.15
2022-10-30T14:58:23.650Z,2.67
2022-10-30T15:01:46.368Z,3.03
2022-10-30T15:05:15.275Z,2.70
2022-10-30T15:08:56.584Z,3.03
2022-10-30T15:12:20.347Z,1.70
2022-10-30T15:15:32.852Z,5.38
2022-10-30T15:22:06.051Z,2.60
2022-10-30T15:25:27.998Z,3.15
2022-10-30T15:28:38.404Z,4.70
2022-10-30T15:32:08.704Z,3.22
2022-10-30T15:35:31.779Z,4.10
2022-10-30T15:38:49.866Z,4.15
2022-10-30T15:42:00.781Z,2.95
2022-10-30T15:45:21.874Z,6.32
2022-10-30T15:48:37.398Z,3.72
2022-10-30T15:51:55.348Z,6.70
2022-10-30T15:55:15.133Z,5.53
2022-10-30T15:58:28.746Z,1.92
2022-10-30T16:01:43.649Z,4.10
2022-10-30T16:04:56.604Z,10.95
2022-10-30T16:08:17.937Z,3.67
2022-10-30T16:11:33.651Z,3.75
2022-10-30T16:14:47.678Z,6.07
2022-10-30T16:18:11.662Z,3.88
2022-10-30T16:21:34.305Z,5.30
2022-10-30T16:24:54.835Z,2.10
2022-10-30T16:28:10.038Z,5.65
2022-10-30T16:31:27.763Z,5.50
2022-10-30T16:34:38.598Z,4.63
2022-10-30T16:37:51.660Z,5.47
2022-10-30T16:41:02.163Z,3.15
2022-10-30T16:44:22.499Z,6.70
2022-10-30T16:47:43.466Z,1.98
2022-10-30T16:50:51.288Z,2.60
2022-10-30T16:54:01.801Z,1.65
2022-10-30T16:57:22.201Z,26.15
2022-10-30T17:00:43.515Z,50.08
2022-10-30T17:03:55.781Z,19.50
2022-10-30T17:07:20.262Z,48.10
2022-10-30T17:10:49.812Z,60.33
2022-10-30T17:14:04.247Z,98.95
2022-10-30T17:17:28.702Z,66.25
2022-10-30T17:20:46.381Z,55.88
2022-10-30T17:24:01.596Z,57.95
2022-10-30T17:27:16.039Z,86.30
2022-10-30T17:30:47.977Z,77.93
2022-10-30T17:34:39.841Z,65.53
2022-10-30T17:37:51.721Z,52.03
2022-10-30T17:41:02.112Z,60.00
2022-10-30T17:44:25.699Z,58.38
2022-10-30T17:47:38.203Z,55.50
2022-10-30T17:50:54.626Z,54.92
2022-10-30T17:54:03.697Z,48.22
2022-10-30T17:57:25.556Z,54.47
2022-10-30T18:00:35.199Z,50.75
2022-10-30T18:03:56.019Z,42.40
2022-10-30T18:07:10.523Z,53.47
2022-10-30T18:10:20.167Z,51.03
2022-10-30T18:13:35.489Z,44.30
2022-10-30T18:16:52.991Z,50.03
2022-10-30T18:20:06.199Z,44.83
2022-10-30T18:26:58.811Z,44.45
2022-10-30T18:30:14.349Z,33.55
2022-10-30T18:33:25.061Z,36.42
2022-10-30T18:36:38.701Z,38.20
2022-10-30T18:39:50.544Z,32.45
2022-10-30T18:43:06.052Z,29.27
2022-10-30T18:46:19.089Z,32.45
2022-10-30T18:49:32.154Z,31.88
2022-10-30T18:52:43.320Z,33.20
2022-10-30T18:55:53.704Z,35.35
2022-10-30T18:59:02.726Z,35.35
2022-10-30T19:02:24.107Z,35.93
2022-10-30T19:05:42.987Z,37.70
2022-10-30T19:08:59.905Z,37.92
2022-10-30T19:12:14.100Z,36.30
2022-10-30T19:15:31.712Z,33.83
2022-10-30T19:18:41.979Z,32.30
2022-10-30T19:21:53.408Z,30.17
2022-10-30T19:25:04.893Z,29.65
2022-10-30T19:28:21.955Z,26.83
2022-10-30T19:31:31.557Z,25.13
2022-10-30T19:34:46.072Z,25.73
2022-10-30T19:37:53.719Z,22.23
2022-10-30T19:41:04.184Z,20.92
2022-10-30T19:44:21.960Z,21.35
2022-10-30T19:47:35.980Z,21.42
2022-10-30T19:50:49.058Z,22.77
2022-10-30T19:53:57.512Z,19.52
2022-10-30T20:00:28.864Z,21.55
2022-10-30T20:03:37.960Z,16.15
2022-10-30T20:06:46.025Z,16.50
2022-10-30T20:09:55.385Z,17.17
2022-10-30T20:13:14.549Z,16.40
2022-10-30T20:16:33.025Z,14.43
2022-10-30T20:19:48.504Z,12.95
2022-10-30T20:23:04.290Z,16.10
2022-10-30T20:26:32.933Z,16.10
2022-10-30T20:29:48.825Z,14.85
2022-10-30T20:33:04.578Z,15.95
2022-10-30T20:36:15.603Z,12.07
2022-10-30T20:39:23.236Z,11.35
2022-10-30T20:42:37.343Z,13.15
2022-10-30T20:45:51.535Z,11.23
2022-10-30T20:49:16.990Z,10.60
2022-10-30T20:52:42.325Z,10.15
2022-10-30T20:55:56.692Z,11.95
2022-10-30T20:59:11.375Z,12.40
2022-10-30T21:02:18.961Z,9.93
2022-10-30T21:05:43.116Z,11.10
2022-10-30T21:08:50.801Z,10.85
2022-10-30T21:12:00.381Z,10.37
2022-10-30T21:15:38.932Z,10.50
2022-10-30T21:18:49.894Z,8.15
2022-10-30T21:22:00.491Z,8.85
2022-10-30T21:25:08.980Z,7.97
2022-10-30T21:28:21.335Z,9.02
2022-10-30T21:31:41.896Z,8.75
2022-10-30T21:34:51.822Z,11.73
2022-10-30T21:41:10.044Z,8.45
2022-10-30T21:44:22.243Z,8.18
2022-10-30T21:47:49.532Z,10.45
2022-10-30T21:50:57.121Z,7.65
2022-10-30T21:54:14.331Z,6.88
2022-10-30T21:57:26.659Z,10.90
2022-10-30T22:00:37.262Z,7.90
2022-10-30T22:03:53.043Z,8.77
2022-10-30T22:07:00.636Z,8.18
2022-10-30T22:10:14.511Z,7.05
2022-10-30T22:13:28.813Z,7.15
2022-10-30T22:16:38.163Z,7.78
2022-10-30T22:19:49.883Z,7.70
2022-10-30T22:23:00.490Z,6.40
2022-10-30T22:26:16.845Z,6.57
2022-10-30T22:29:24.271Z,6.13
2022-10-30T22:32:34.567Z,8.82
2022-10-30T22:35:46.520Z,8.05
2022-10-30T22:38:58.268Z,7.07
2022-10-30T22:42:14.642Z,6.10
2022-10-30T22:45:22.284Z,7.68
2022-10-30T22:48:35.745Z,5.55
2022-10-30T22:51:48.358Z,5.75
2022-10-30T22:54:55.853Z,6.32
2022-10-30T22:58:08.999Z,9.88
2022-10-30T23:01:21.094Z,8.13
2022-10-30T23:04:30.775Z,5.55
2022-10-30T23:07:41.282Z,6.97
2022-10-30T23:10:55.401Z,6.03
2022-10-30T23:14:10.152Z,5.60
2022-10-30T23:17:17.665Z,6.38
2022-10-30T23:20:26.582Z,5.95
2022-10-30T23:23:38.354Z,6.45
2022-10-30T23:26:45.793Z,5.18
2022-10-30T23:29:56.815Z,5.78
2022-10-30T23:33:06.607Z,6.18
2022-10-30T23:36:14.018Z,5.05
2022-10-30T23:39:22.916Z,5.85
2022-10-30T23:42:30.480Z,6.22
2022-10-30T23:45:40.955Z,6.03
2022-10-30T23:48:49.292Z,6.85
2022-10-30T23:51:56.599Z,6.00
2022-10-30T23:55:09.082Z,8.00
